Comanche, Montana
Current Conditions -  °F | °C
As of 6:53 PM on Sunday 25 Jan 2015 (Local Time) from KBIL Reporting Station
Broken Clouds Broken Clouds  
Wind Chill: 55°   Ceiling: 22000
Heat Index: 55°   Visibility: 10mi
Dew Point: 29°   Wind: 17mph
Humidity: 37%   Direction: 240°WSW
Pressure: 30.04"   Gusts: 24mph
Location:  46.053°N, 108.734°W
Report Text: KBIL 260153Z 24015G21KT 10SM BKN220 13/M02 A3004 RMK AO2 SLP176 T01281017
Loading
Personal Weather Stations






























Interactive Weather Map New forecast layout! Learn more

10-Day Weather Forecast

Advertisements
Track Severe Weather on mobile